sensor_id;sensor_type;location;lat;lon;timestamp;temperature;humidity
53844;DHT22;39744;53.314;5.710;2024-01-11T00:00:09;-1.10;99.90
53844;DHT22;39744;53.314;5.710;2024-01-11T00:02:35;-1.10;99.90
53844;DHT22;39744;53.314;5.710;2024-01-11T00:05:00;-1.10;99.90
53844;DHT22;39744;53.314;5.710;2024-01-11T00:07:27;-1.10;99.90
53844;DHT22;39744;53.314;5.710;2024-01-11T00:09:52;-1.10;99.90
53844;DHT22;39744;53.314;5.710;2024-01-11T00:12:18;-1.10;99.90
53844;DHT22;39744;53.314;5.710;2024-01-11T00:14:44;-1.10;99.90
53844;DHT22;39744;53.314;5.710;2024-01-11T00:17:10;-1.10;99.90
53844;DHT22;39744;53.314;5.710;2024-01-11T00:19:35;-1.10;99.90
53844;DHT22;39744;53.314;5.710;2024-01-11T00:22:01;-1.10;99.90
53844;DHT22;39744;53.314;5.710;2024-01-11T00:24:27;-1.10;99.90
53844;DHT22;39744;53.314;5.710;2024-01-11T00:26:53;-1.20;99.90
53844;DHT22;39744;53.314;5.710;2024-01-11T00:29:19;-1.20;99.90
53844;DHT22;39744;53.314;5.710;2024-01-11T00:31:45;-1.20;99.90
53844;DHT22;39744;53.314;5.710;2024-01-11T00:34:11;-1.30;99.90
53844;DHT22;39744;53.314;5.710;2024-01-11T00:36:36;-1.20;99.90
53844;DHT22;39744;53.314;5.710;2024-01-11T00:39:03;-1.30;99.90
53844;DHT22;39744;53.314;5.710;2024-01-11T00:41:29;-1.20;99.90
53844;DHT22;39744;53.314;5.710;2024-01-11T00:43:54;-1.20;99.90
53844;DHT22;39744;53.314;5.710;2024-01-11T00:46:21;-1.20;99.90
53844;DHT22;39744;53.314;5.710;2024-01-11T00:48:46;-1.20;99.90
53844;DHT22;39744;53.314;5.710;2024-01-11T00:51:13;-1.20;99.90
53844;DHT22;39744;53.314;5.710;2024-01-11T00:53:39;-1.10;99.90
53844;DHT22;39744;53.314;5.710;2024-01-11T00:56:05;-1.20;99.90
53844;DHT22;39744;53.314;5.710;2024-01-11T00:58:31;-1.20;99.90
53844;DHT22;39744;53.314;5.710;2024-01-11T01:00:57;-1.20;99.90
53844;DHT22;39744;53.314;5.710;2024-01-11T01:03:23;-1.10;99.90
53844;DHT22;39744;53.314;5.710;2024-01-11T01:05:49;-1.10;99.90
53844;DHT22;39744;53.314;5.710;2024-01-11T01:08:14;-1.10;99.90
53844;DHT22;39744;53.314;5.710;2024-01-11T01:10:40;-1.10;99.90
53844;DHT22;39744;53.314;5.710;2024-01-11T01:13:06;-1.40;99.90
53844;DHT22;39744;53.314;5.710;2024-01-11T01:15:31;-1.50;99.90
53844;DHT22;39744;53.314;5.710;2024-01-11T01:17:57;-1.40;99.90
53844;DHT22;39744;53.314;5.710;2024-01-11T01:20:23;-1.40;99.90
53844;DHT22;39744;53.314;5.710;2024-01-11T01:22:49;-1.50;99.90
53844;DHT22;39744;53.314;5.710;2024-01-11T01:25:15;-1.40;99.90
53844;DHT22;39744;53.314;5.710;2024-01-11T01:27:41;-1.50;99.90
53844;DHT22;39744;53.314;5.710;2024-01-11T01:30:06;-1.50;99.90
53844;DHT22;39744;53.314;5.710;2024-01-11T01:32:34;-1.40;99.90
53844;DHT22;39744;53.314;5.710;2024-01-11T01:35:00;-1.50;99.90
53844;DHT22;39744;53.314;5.710;2024-01-11T01:37:25;-1.40;99.90
53844;DHT22;39744;53.314;5.710;2024-01-11T01:39:51;-1.50;99.90
53844;DHT22;39744;53.314;5.710;2024-01-11T01:42:17;-1.40;99.90
53844;DHT22;39744;53.314;5.710;2024-01-11T01:44:42;-1.60;99.90
53844;DHT22;39744;53.314;5.710;2024-01-11T01:47:09;-1.40;99.90
53844;DHT22;39744;53.314;5.710;2024-01-11T01:49:35;-1.40;99.90
53844;DHT22;39744;53.314;5.710;2024-01-11T01:52:02;-1.30;99.90
53844;DHT22;39744;53.314;5.710;2024-01-11T01:54:28;-1.20;99.90
53844;DHT22;39744;53.314;5.710;2024-01-11T01:56:54;-1.40;99.90
53844;DHT22;39744;53.314;5.710;2024-01-11T01:59:20;-1.40;99.90
53844;DHT22;39744;53.314;5.710;2024-01-11T02:01:46;-1.40;99.90
53844;DHT22;39744;53.314;5.710;2024-01-11T02:04:12;-1.40;99.90
53844;DHT22;39744;53.314;5.710;2024-01-11T02:06:38;-1.60;99.90
53844;DHT22;39744;53.314;5.710;2024-01-11T02:09:03;-1.30;99.90
53844;DHT22;39744;53.314;5.710;2024-01-11T02:11:30;-1.40;99.90
53844;DHT22;39744;53.314;5.710;2024-01-11T02:13:55;-1.20;99.90
53844;DHT22;39744;53.314;5.710;2024-01-11T02:16:22;-1.40;99.90
53844;DHT22;39744;53.314;5.710;2024-01-11T02:18:49;-1.40;99.90
53844;DHT22;39744;53.314;5.710;2024-01-11T02:21:14;-1.40;99.90
53844;DHT22;39744;53.314;5.710;2024-01-11T02:23:44;-1.40;99.90
53844;DHT22;39744;53.314;5.710;2024-01-11T02:26:13;-1.30;99.90
53844;DHT22;39744;53.314;5.710;2024-01-11T02:28:42;-1.40;99.90
53844;DHT22;39744;53.314;5.710;2024-01-11T02:31:08;-1.40;99.90
53844;DHT22;39744;53.314;5.710;2024-01-11T02:33:33;-1.40;99.90
53844;DHT22;39744;53.314;5.710;2024-01-11T02:35:59;-1.30;99.90
53844;DHT22;39744;53.314;5.710;2024-01-11T02:38:25;-1.40;99.90
53844;DHT22;39744;53.314;5.710;2024-01-11T02:40:51;-1.30;99.90
53844;DHT22;39744;53.314;5.710;2024-01-11T02:43:17;-1.20;99.90
53844;DHT22;39744;53.314;5.710;2024-01-11T02:45:42;-1.10;99.90
53844;DHT22;39744;53.314;5.710;2024-01-11T02:48:08;-1.10;99.90
53844;DHT22;39744;53.314;5.710;2024-01-11T02:50:34;-1.20;99.90
53844;DHT22;39744;53.314;5.710;2024-01-11T02:53:00;-1.20;99.90
53844;DHT22;39744;53.314;5.710;2024-01-11T02:55:26;-1.30;99.90
53844;DHT22;39744;53.314;5.710;2024-01-11T02:57:52;-1.20;99.90
53844;DHT22;39744;53.314;5.710;2024-01-11T03:00:17;-1.20;99.90
53844;DHT22;39744;53.314;5.710;2024-01-11T03:02:43;-1.10;99.90
53844;DHT22;39744;53.314;5.710;2024-01-11T03:05:09;-1.30;99.90
53844;DHT22;39744;53.314;5.710;2024-01-11T03:07:34;-1.40;99.90
53844;DHT22;39744;53.314;5.710;2024-01-11T03:10:00;-1.30;99.90
53844;DHT22;39744;53.314;5.710;2024-01-11T03:12:26;-1.20;99.90
53844;DHT22;39744;53.314;5.710;2024-01-11T03:14:52;-1.20;99.90
53844;DHT22;39744;53.314;5.710;2024-01-11T03:17:18;-1.30;99.90
53844;DHT22;39744;53.314;5.710;2024-01-11T03:19:44;-1.30;99.90
53844;DHT22;39744;53.314;5.710;2024-01-11T03:22:11;-0.60;99.90
53844;DHT22;39744;53.314;5.710;2024-01-11T03:24:37;-1.30;99.90
53844;DHT22;39744;53.314;5.710;2024-01-11T03:27:03;-1.30;99.90
53844;DHT22;39744;53.314;5.710;2024-01-11T03:29:28;-1.30;99.90
53844;DHT22;39744;53.314;5.710;2024-01-11T03:31:55;-1.30;99.90
53844;DHT22;39744;53.314;5.710;2024-01-11T03:34:20;-1.20;99.90
53844;DHT22;39744;53.314;5.710;2024-01-11T03:36:46;-1.40;99.90
53844;DHT22;39744;53.314;5.710;2024-01-11T03:39:12;-1.50;99.90
53844;DHT22;39744;53.314;5.710;2024-01-11T03:41:42;-1.40;99.90
53844;DHT22;39744;53.314;5.710;2024-01-11T03:44:08;-1.50;99.90
53844;DHT22;39744;53.314;5.710;2024-01-11T03:46:35;-1.50;99.90
53844;DHT22;39744;53.314;5.710;2024-01-11T03:49:00;-1.40;99.90
53844;DHT22;39744;53.314;5.710;2024-01-11T03:51:26;-1.40;99.90
53844;DHT22;39744;53.314;5.710;2024-01-11T03:53:52;-1.50;99.90
53844;DHT22;39744;53.314;5.710;2024-01-11T03:56:18;-1.50;99.90
53844;DHT22;39744;53.314;5.710;2024-01-11T03:58:45;-1.50;99.90
53844;DHT22;39744;53.314;5.710;2024-01-11T04:01:10;-1.50;99.90
53844;DHT22;39744;53.314;5.710;2024-01-11T04:03:36;-1.50;99.90
53844;DHT22;39744;53.314;5.710;2024-01-11T04:06:03;-1.70;99.90
53844;DHT22;39744;53.314;5.710;2024-01-11T04:08:28;-1.40;99.90
53844;DHT22;39744;53.314;5.710;2024-01-11T04:10:54;-1.50;99.90
53844;DHT22;39744;53.314;5.710;2024-01-11T04:13:20;-1.60;99.90
53844;DHT22;39744;53.314;5.710;2024-01-11T04:15:46;-1.50;99.90
53844;DHT22;39744;53.314;5.710;2024-01-11T04:18:11;-1.60;99.90
53844;DHT22;39744;53.314;5.710;2024-01-11T04:20:37;-1.60;99.90
53844;DHT22;39744;53.314;5.710;2024-01-11T04:23:03;-1.50;99.90
53844;DHT22;39744;53.314;5.710;2024-01-11T04:25:28;-1.30;99.90
53844;DHT22;39744;53.314;5.710;2024-01-11T04:27:55;-1.50;99.90
53844;DHT22;39744;53.314;5.710;2024-01-11T04:30:20;-1.50;99.90
53844;DHT22;39744;53.314;5.710;2024-01-11T04:32:47;-1.40;99.90
53844;DHT22;39744;53.314;5.710;2024-01-11T04:35:12;-0.70;99.90
53844;DHT22;39744;53.314;5.710;2024-01-11T04:37:38;-1.30;99.90
53844;DHT22;39744;53.314;5.710;2024-01-11T04:40:05;-1.40;99.90
53844;DHT22;39744;53.314;5.710;2024-01-11T04:42:32;-1.10;99.90
53844;DHT22;39744;53.314;5.710;2024-01-11T04:44:58;-1.20;99.90
53844;DHT22;39744;53.314;5.710;2024-01-11T04:47:23;-1.00;99.90
53844;DHT22;39744;53.314;5.710;2024-01-11T04:49:49;-1.00;99.90
53844;DHT22;39744;53.314;5.710;2024-01-11T04:52:14;-1.00;99.90
53844;DHT22;39744;53.314;5.710;2024-01-11T04:54:42;-0.70;99.90
53844;DHT22;39744;53.314;5.710;2024-01-11T04:57:07;-0.70;99.90
53844;DHT22;39744;53.314;5.710;2024-01-11T04:59:33;-0.70;99.90
53844;DHT22;39744;53.314;5.710;2024-01-11T05:01:59;-0.70;99.90
53844;DHT22;39744;53.314;5.710;2024-01-11T05:04:25;-0.60;99.90
53844;DHT22;39744;53.314;5.710;2024-01-11T05:06:51;-0.60;99.90
53844;DHT22;39744;53.314;5.710;2024-01-11T05:09:16;-0.20;99.90
53844;DHT22;39744;53.314;5.710;2024-01-11T05:11:42;-0.30;99.90
53844;DHT22;39744;53.314;5.710;2024-01-11T05:14:07;-0.20;99.90
53844;DHT22;39744;53.314;5.710;2024-01-11T05:16:33;-0.10;99.90
53844;DHT22;39744;53.314;5.710;2024-01-11T05:19:00;0.00;99.90
53844;DHT22;39744;53.314;5.710;2024-01-11T05:21:26;-0.10;99.90
53844;DHT22;39744;53.314;5.710;2024-01-11T05:23:52;0.20;99.90
53844;DHT22;39744;53.314;5.710;2024-01-11T05:26:18;0.40;99.90
53844;DHT22;39744;53.314;5.710;2024-01-11T05:28:43;0.30;99.90
53844;DHT22;39744;53.314;5.710;2024-01-11T05:31:12;0.30;99.90
53844;DHT22;39744;53.314;5.710;2024-01-11T05:33:39;0.60;99.90
53844;DHT22;39744;53.314;5.710;2024-01-11T05:36:04;0.40;99.90
53844;DHT22;39744;53.314;5.710;2024-01-11T05:38:30;0.60;99.90
53844;DHT22;39744;53.314;5.710;2024-01-11T05:40:56;0.50;99.90
53844;DHT22;39744;53.314;5.710;2024-01-11T05:43:22;0.30;99.90
53844;DHT22;39744;53.314;5.710;2024-01-11T05:45:47;0.50;99.90
53844;DHT22;39744;53.314;5.710;2024-01-11T05:48:13;0.50;99.90
53844;DHT22;39744;53.314;5.710;2024-01-11T05:50:39;0.60;99.90
53844;DHT22;39744;53.314;5.710;2024-01-11T05:53:04;0.70;99.90
53844;DHT22;39744;53.314;5.710;2024-01-11T05:55:31;0.70;99.90
53844;DHT22;39744;53.314;5.710;2024-01-11T05:57:57;0.70;99.90
53844;DHT22;39744;53.314;5.710;2024-01-11T06:00:22;0.80;99.90
53844;DHT22;39744;53.314;5.710;2024-01-11T06:02:48;0.80;99.90
53844;DHT22;39744;53.314;5.710;2024-01-11T06:05:14;0.70;99.90
53844;DHT22;39744;53.314;5.710;2024-01-11T06:07:40;0.70;99.90
53844;DHT22;39744;53.314;5.710;2024-01-11T06:10:06;0.90;99.90
53844;DHT22;39744;53.314;5.710;2024-01-11T06:12:33;1.20;99.90
53844;DHT22;39744;53.314;5.710;2024-01-11T06:14:59;1.00;99.90
53844;DHT22;39744;53.314;5.710;2024-01-11T06:17:24;1.00;99.90
53844;DHT22;39744;53.314;5.710;2024-01-11T06:19:51;1.10;99.90
53844;DHT22;39744;53.314;5.710;2024-01-11T06:22:17;1.10;99.90
53844;DHT22;39744;53.314;5.710;2024-01-11T06:24:42;1.20;99.90
53844;DHT22;39744;53.314;5.710;2024-01-11T06:27:09;1.00;99.90
53844;DHT22;39744;53.314;5.710;2024-01-11T06:29:34;1.30;99.90
53844;DHT22;39744;53.314;5.710;2024-01-11T06:32:00;1.20;99.90
53844;DHT22;39744;53.314;5.710;2024-01-11T06:34:25;1.10;99.90
53844;DHT22;39744;53.314;5.710;2024-01-11T06:36:51;1.20;99.90
53844;DHT22;39744;53.314;5.710;2024-01-11T06:39:17;1.20;99.90
53844;DHT22;39744;53.314;5.710;2024-01-11T06:41:43;1.20;99.90
53844;DHT22;39744;53.314;5.710;2024-01-11T06:44:09;1.20;99.90
53844;DHT22;39744;53.314;5.710;2024-01-11T06:46:34;1.30;99.90
53844;DHT22;39744;53.314;5.710;2024-01-11T06:49:01;1.20;99.90
53844;DHT22;39744;53.314;5.710;2024-01-11T06:51:27;1.20;99.90
53844;DHT22;39744;53.314;5.710;2024-01-11T06:53:52;1.40;99.90
53844;DHT22;39744;53.314;5.710;2024-01-11T06:56:19;1.30;99.90
53844;DHT22;39744;53.314;5.710;2024-01-11T06:58:45;1.40;99.90
53844;DHT22;39744;53.314;5.710;2024-01-11T07:01:11;1.30;99.90
53844;DHT22;39744;53.314;5.710;2024-01-11T07:03:37;1.40;99.90
53844;DHT22;39744;53.314;5.710;2024-01-11T07:06:03;1.40;99.90
53844;DHT22;39744;53.314;5.710;2024-01-11T07:08:29;1.40;99.90
53844;DHT22;39744;53.314;5.710;2024-01-11T07:10:54;1.50;99.90
53844;DHT22;39744;53.314;5.710;2024-01-11T07:13:20;1.40;99.90
53844;DHT22;39744;53.314;5.710;2024-01-11T07:15:46;1.40;99.90
53844;DHT22;39744;53.314;5.710;2024-01-11T07:18:13;1.30;99.90
53844;DHT22;39744;53.314;5.710;2024-01-11T07:20:40;1.40;99.90
53844;DHT22;39744;53.314;5.710;2024-01-11T07:23:05;1.40;99.90
53844;DHT22;39744;53.314;5.710;2024-01-11T07:25:31;1.40;99.90
53844;DHT22;39744;53.314;5.710;2024-01-11T07:27:57;1.40;99.90
53844;DHT22;39744;53.314;5.710;2024-01-11T07:30:22;1.60;99.90
53844;DHT22;39744;53.314;5.710;2024-01-11T07:32:48;1.50;99.90
53844;DHT22;39744;53.314;5.710;2024-01-11T07:35:13;1.50;99.90
53844;DHT22;39744;53.314;5.710;2024-01-11T07:37:39;1.60;99.90
53844;DHT22;39744;53.314;5.710;2024-01-11T07:40:05;1.50;99.90
53844;DHT22;39744;53.314;5.710;2024-01-11T07:42:35;1.80;99.90
53844;DHT22;39744;53.314;5.710;2024-01-11T07:45:01;1.80;99.90
53844;DHT22;39744;53.314;5.710;2024-01-11T07:47:26;1.70;99.90
53844;DHT22;39744;53.314;5.710;2024-01-11T07:49:52;1.60;99.90
53844;DHT22;39744;53.314;5.710;2024-01-11T07:52:17;1.50;99.90
53844;DHT22;39744;53.314;5.710;2024-01-11T07:54:43;1.70;99.90
53844;DHT22;39744;53.314;5.710;2024-01-11T07:57:09;1.80;99.90
53844;DHT22;39744;53.314;5.710;2024-01-11T07:59:34;1.70;99.90
53844;DHT22;39744;53.314;5.710;2024-01-11T08:02:03;1.60;99.90
53844;DHT22;39744;53.314;5.710;2024-01-11T08:04:29;1.50;99.90
53844;DHT22;39744;53.314;5.710;2024-01-11T08:06:54;1.80;99.90
53844;DHT22;39744;53.314;5.710;2024-01-11T08:09:20;1.80;99.90
53844;DHT22;39744;53.314;5.710;2024-01-11T08:11:47;1.60;99.90
53844;DHT22;39744;53.314;5.710;2024-01-11T08:14:12;1.70;99.90
53844;DHT22;39744;53.314;5.710;2024-01-11T08:16:39;1.80;99.90
53844;DHT22;39744;53.314;5.710;2024-01-11T08:19:04;1.80;99.90
53844;DHT22;39744;53.314;5.710;2024-01-11T08:21:30;2.00;99.90
53844;DHT22;39744;53.314;5.710;2024-01-11T08:23:56;1.90;99.90
53844;DHT22;39744;53.314;5.710;2024-01-11T08:26:22;2.10;99.90
53844;DHT22;39744;53.314;5.710;2024-01-11T08:28:48;2.10;99.90
53844;DHT22;39744;53.314;5.710;2024-01-11T08:31:13;2.10;99.90
53844;DHT22;39744;53.314;5.710;2024-01-11T08:33:39;2.20;99.90
53844;DHT22;39744;53.314;5.710;2024-01-11T08:36:05;2.20;99.90
53844;DHT22;39744;53.314;5.710;2024-01-11T08:38:31;2.40;99.90
53844;DHT22;39744;53.314;5.710;2024-01-11T08:40:57;2.30;99.90
53844;DHT22;39744;53.314;5.710;2024-01-11T08:43:27;2.40;99.90
53844;DHT22;39744;53.314;5.710;2024-01-11T08:45:52;2.30;99.90
53844;DHT22;39744;53.314;5.710;2024-01-11T08:48:19;2.50;99.90
53844;DHT22;39744;53.314;5.710;2024-01-11T08:50:44;2.50;99.90
53844;DHT22;39744;53.314;5.710;2024-01-11T08:53:10;2.60;99.90
53844;DHT22;39744;53.314;5.710;2024-01-11T08:55:36;2.70;99.90
53844;DHT22;39744;53.314;5.710;2024-01-11T08:58:01;2.80;99.90
53844;DHT22;39744;53.314;5.710;2024-01-11T09:00:27;3.10;99.90
53844;DHT22;39744;53.314;5.710;2024-01-11T09:02:52;2.90;99.90
53844;DHT22;39744;53.314;5.710;2024-01-11T09:05:18;2.90;99.90
53844;DHT22;39744;53.314;5.710;2024-01-11T09:07:43;3.10;99.90
53844;DHT22;39744;53.314;5.710;2024-01-11T09:10:09;3.00;99.90
53844;DHT22;39744;53.314;5.710;2024-01-11T09:12:36;3.20;99.90
53844;DHT22;39744;53.314;5.710;2024-01-11T09:15:02;3.10;99.90
53844;DHT22;39744;53.314;5.710;2024-01-11T09:17:28;3.30;99.90
53844;DHT22;39744;53.314;5.710;2024-01-11T09:19:53;3.40;99.90
53844;DHT22;39744;53.314;5.710;2024-01-11T09:22:19;3.50;99.90
53844;DHT22;39744;53.314;5.710;2024-01-11T09:24:44;3.70;99.90
53844;DHT22;39744;53.314;5.710;2024-01-11T09:27:10;3.90;99.90
53844;DHT22;39744;53.314;5.710;2024-01-11T09:29:36;3.90;99.90
53844;DHT22;39744;53.314;5.710;2024-01-11T09:32:02;4.20;99.90
53844;DHT22;39744;53.314;5.710;2024-01-11T09:34:27;4.60;99.90
53844;DHT22;39744;53.314;5.710;2024-01-11T09:36:53;4.90;99.90
53844;DHT22;39744;53.314;5.710;2024-01-11T09:39:18;5.10;99.90
53844;DHT22;39744;53.314;5.710;2024-01-11T09:41:48;5.30;99.90
53844;DHT22;39744;53.314;5.710;2024-01-11T09:44:16;5.50;99.90
53844;DHT22;39744;53.314;5.710;2024-01-11T09:46:41;5.70;99.90
53844;DHT22;39744;53.314;5.710;2024-01-11T09:49:07;6.50;99.90
53844;DHT22;39744;53.314;5.710;2024-01-11T09:56:27;6.30;99.90
53844;DHT22;39744;53.314;5.710;2024-01-11T09:58:53;6.20;99.90
53844;DHT22;39744;53.314;5.710;2024-01-11T10:01:19;6.10;99.90
53844;DHT22;39744;53.314;5.710;2024-01-11T10:03:45;6.10;99.90
53844;DHT22;39744;53.314;5.710;2024-01-11T10:06:12;6.00;99.90
53844;DHT22;39744;53.314;5.710;2024-01-11T10:08:39;6.20;99.90
53844;DHT22;39744;53.314;5.710;2024-01-11T10:11:04;6.70;99.90
53844;DHT22;39744;53.314;5.710;2024-01-11T10:13:31;6.10;99.90
53844;DHT22;39744;53.314;5.710;2024-01-11T10:16:10;6.30;99.90
53844;DHT22;39744;53.314;5.710;2024-01-11T10:18:39;6.50;99.90
53844;DHT22;39744;53.314;5.710;2024-01-11T10:21:05;6.30;99.90
53844;DHT22;39744;53.314;5.710;2024-01-11T10:23:34;6.20;99.90
53844;DHT22;39744;53.314;5.710;2024-01-11T10:25:59;6.40;99.90
53844;DHT22;39744;53.314;5.710;2024-01-11T10:28:25;6.30;99.90
53844;DHT22;39744;53.314;5.710;2024-01-11T10:30:51;6.30;99.90
53844;DHT22;39744;53.314;5.710;2024-01-11T10:33:21;6.40;99.90
53844;DHT22;39744;53.314;5.710;2024-01-11T10:35:46;6.30;99.90
53844;DHT22;39744;53.314;5.710;2024-01-11T10:38:14;6.20;99.90
53844;DHT22;39744;53.314;5.710;2024-01-11T10:40:40;6.40;99.90
53844;DHT22;39744;53.314;5.710;2024-01-11T10:43:06;6.50;99.90
53844;DHT22;39744;53.314;5.710;2024-01-11T10:45:36;6.40;99.90
53844;DHT22;39744;53.314;5.710;2024-01-11T10:48:09;6.60;99.90
53844;DHT22;39744;53.314;5.710;2024-01-11T10:50:38;6.80;99.90
53844;DHT22;39744;53.314;5.710;2024-01-11T10:55:33;6.70;99.90
53844;DHT22;39744;53.314;5.710;2024-01-11T10:58:00;6.80;99.90
53844;DHT22;39744;53.314;5.710;2024-01-11T11:00:27;6.70;99.90
53844;DHT22;39744;53.314;5.710;2024-01-11T11:02:53;6.60;99.90
53844;DHT22;39744;53.314;5.710;2024-01-11T11:05:19;6.40;99.90
53844;DHT22;39744;53.314;5.710;2024-01-11T11:07:47;6.30;99.90
53844;DHT22;39744;53.314;5.710;2024-01-11T11:10:13;6.40;99.90
53844;DHT22;39744;53.314;5.710;2024-01-11T11:12:39;6.50;99.90
53844;DHT22;39744;53.314;5.710;2024-01-11T11:15:05;6.50;99.90
53844;DHT22;39744;53.314;5.710;2024-01-11T11:17:32;6.70;99.90
53844;DHT22;39744;53.314;5.710;2024-01-11T11:19:57;6.60;99.90
53844;DHT22;39744;53.314;5.710;2024-01-11T11:22:26;7.10;99.90
53844;DHT22;39744;53.314;5.710;2024-01-11T11:25:02;6.80;99.90
53844;DHT22;39744;53.314;5.710;2024-01-11T11:27:28;6.90;99.90
53844;DHT22;39744;53.314;5.710;2024-01-11T11:29:55;6.80;99.90
53844;DHT22;39744;53.314;5.710;2024-01-11T11:32:34;7.00;99.90
53844;DHT22;39744;53.314;5.710;2024-01-11T11:34:59;6.80;99.90
53844;DHT22;39744;53.314;5.710;2024-01-11T11:37:25;6.70;99.90
53844;DHT22;39744;53.314;5.710;2024-01-11T11:39:52;6.80;99.90
53844;DHT22;39744;53.314;5.710;2024-01-11T11:42:18;6.80;99.90
53844;DHT22;39744;53.314;5.710;2024-01-11T11:44:52;6.70;99.90
53844;DHT22;39744;53.314;5.710;2024-01-11T11:52:15;6.80;99.90
53844;DHT22;39744;53.314;5.710;2024-01-11T11:54:42;7.00;99.90
53844;DHT22;39744;53.314;5.710;2024-01-11T11:57:08;7.50;99.90
53844;DHT22;39744;53.314;5.710;2024-01-11T11:59:34;7.00;99.90
53844;DHT22;39744;53.314;5.710;2024-01-11T12:02:03;6.90;99.90
53844;DHT22;39744;53.314;5.710;2024-01-11T12:04:30;6.90;99.90
53844;DHT22;39744;53.314;5.710;2024-01-11T12:06:57;6.80;99.90
53844;DHT22;39744;53.314;5.710;2024-01-11T12:09:22;6.80;99.90
53844;DHT22;39744;53.314;5.710;2024-01-11T12:11:49;7.00;99.90
53844;DHT22;39744;53.314;5.710;2024-01-11T12:14:15;7.00;99.90
53844;DHT22;39744;53.314;5.710;2024-01-11T12:16:41;7.10;99.90
53844;DHT22;39744;53.314;5.710;2024-01-11T12:19:06;7.00;99.90
53844;DHT22;39744;53.314;5.710;2024-01-11T12:21:32;7.10;99.90
53844;DHT22;39744;53.314;5.710;2024-01-11T12:23:58;7.00;99.90
53844;DHT22;39744;53.314;5.710;2024-01-11T12:26:24;7.00;99.90
53844;DHT22;39744;53.314;5.710;2024-01-11T12:28:49;7.00;99.90
53844;DHT22;39744;53.314;5.710;2024-01-11T12:31:16;7.00;99.90
53844;DHT22;39744;53.314;5.710;2024-01-11T12:33:41;7.60;99.90
53844;DHT22;39744;53.314;5.710;2024-01-11T12:36:08;6.90;99.90
53844;DHT22;39744;53.314;5.710;2024-01-11T12:38:34;6.90;99.90
53844;DHT22;39744;53.314;5.710;2024-01-11T12:41:00;6.80;99.90
53844;DHT22;39744;53.314;5.710;2024-01-11T12:43:26;6.70;99.90
53844;DHT22;39744;53.314;5.710;2024-01-11T12:45:51;6.80;99.90
53844;DHT22;39744;53.314;5.710;2024-01-11T12:48:17;6.90;99.90
53844;DHT22;39744;53.314;5.710;2024-01-11T12:50:43;7.10;99.90
53844;DHT22;39744;53.314;5.710;2024-01-11T12:53:10;7.20;99.90
53844;DHT22;39744;53.314;5.710;2024-01-11T12:55:45;7.40;99.90
53844;DHT22;39744;53.314;5.710;2024-01-11T12:58:11;7.40;99.90
53844;DHT22;39744;53.314;5.710;2024-01-11T15:24:44;8.20;99.90
53844;DHT22;39744;53.314;5.710;2024-01-11T15:27:18;8.20;99.90
53844;DHT22;39744;53.314;5.710;2024-01-11T15:29:44;7.80;99.90
53844;DHT22;39744;53.314;5.710;2024-01-11T15:32:10;8.00;99.90
53844;DHT22;39744;53.314;5.710;2024-01-11T15:34:35;8.30;99.90
53844;DHT22;39744;53.314;5.710;2024-01-11T15:37:01;7.90;99.90
53844;DHT22;39744;53.314;5.710;2024-01-11T15:39:26;7.80;99.90
53844;DHT22;39744;53.314;5.710;2024-01-11T15:41:53;7.60;99.90
53844;DHT22;39744;53.314;5.710;2024-01-11T15:44:20;7.70;99.90
53844;DHT22;39744;53.314;5.710;2024-01-11T15:46:46;7.60;99.90
53844;DHT22;39744;53.314;5.710;2024-01-11T15:49:11;7.60;99.90
53844;DHT22;39744;53.314;5.710;2024-01-11T15:51:38;7.60;99.90
53844;DHT22;39744;53.314;5.710;2024-01-11T15:54:04;7.50;99.90
53844;DHT22;39744;53.314;5.710;2024-01-11T15:56:29;7.60;99.90
53844;DHT22;39744;53.314;5.710;2024-01-11T15:58:56;7.50;99.90
53844;DHT22;39744;53.314;5.710;2024-01-11T16:01:22;7.40;99.90
53844;DHT22;39744;53.314;5.710;2024-01-11T16:03:47;7.40;99.90
53844;DHT22;39744;53.314;5.710;2024-01-11T16:06:15;7.50;99.90
53844;DHT22;39744;53.314;5.710;2024-01-11T16:08:41;7.40;99.90
53844;DHT22;39744;53.314;5.710;2024-01-11T16:11:07;7.50;99.90
53844;DHT22;39744;53.314;5.710;2024-01-11T16:13:33;7.60;99.90
53844;DHT22;39744;53.314;5.710;2024-01-11T16:16:00;7.50;99.90
53844;DHT22;39744;53.314;5.710;2024-01-11T16:18:25;7.60;99.90
53844;DHT22;39744;53.314;5.710;2024-01-11T16:20:51;7.50;99.90
53844;DHT22;39744;53.314;5.710;2024-01-11T16:23:17;7.60;99.90
53844;DHT22;39744;53.314;5.710;2024-01-11T16:25:43;7.60;99.90
53844;DHT22;39744;53.314;5.710;2024-01-11T16:28:09;7.70;99.90
53844;DHT22;39744;53.314;5.710;2024-01-11T16:30:35;7.50;99.90
53844;DHT22;39744;53.314;5.710;2024-01-11T16:33:01;7.60;99.90
53844;DHT22;39744;53.314;5.710;2024-01-11T16:35:26;7.70;99.90
53844;DHT22;39744;53.314;5.710;2024-01-11T16:37:53;7.60;99.90
53844;DHT22;39744;53.314;5.710;2024-01-11T16:40:19;7.70;99.90
53844;DHT22;39744;53.314;5.710;2024-01-11T16:42:44;7.60;99.90
53844;DHT22;39744;53.314;5.710;2024-01-11T16:45:11;7.70;99.90
53844;DHT22;39744;53.314;5.710;2024-01-11T16:47:36;7.80;99.90
53844;DHT22;39744;53.314;5.710;2024-01-11T16:50:03;8.70;99.90
53844;DHT22;39744;53.314;5.710;2024-01-11T16:52:29;7.80;99.90
53844;DHT22;39744;53.314;5.710;2024-01-11T16:54:55;7.50;99.90
53844;DHT22;39744;53.314;5.710;2024-01-11T16:57:20;7.50;99.90
53844;DHT22;39744;53.314;5.710;2024-01-11T16:59:47;7.50;99.90
53844;DHT22;39744;53.314;5.710;2024-01-11T17:02:12;7.70;99.90
53844;DHT22;39744;53.314;5.710;2024-01-11T17:04:38;7.50;99.90
53844;DHT22;39744;53.314;5.710;2024-01-11T17:07:06;7.60;99.90
53844;DHT22;39744;53.314;5.710;2024-01-11T17:09:31;7.80;99.90
53844;DHT22;39744;53.314;5.710;2024-01-11T17:11:57;7.60;99.90
53844;DHT22;39744;53.314;5.710;2024-01-11T17:14:23;7.70;99.90
53844;DHT22;39744;53.314;5.710;2024-01-11T17:16:49;7.70;99.90
53844;DHT22;39744;53.314;5.710;2024-01-11T17:19:15;7.70;99.90
53844;DHT22;39744;53.314;5.710;2024-01-11T17:21:41;7.80;99.90
53844;DHT22;39744;53.314;5.710;2024-01-11T17:24:07;7.60;99.90
53844;DHT22;39744;53.314;5.710;2024-01-11T17:26:33;7.80;99.90
53844;DHT22;39744;53.314;5.710;2024-01-11T17:28:59;7.60;99.90
53844;DHT22;39744;53.314;5.710;2024-01-11T17:31:25;8.20;99.90
53844;DHT22;39744;53.314;5.710;2024-01-11T17:33:50;8.40;99.90
53844;DHT22;39744;53.314;5.710;2024-01-11T17:36:16;7.60;99.90
53844;DHT22;39744;53.314;5.710;2024-01-11T17:38:42;7.70;99.90
53844;DHT22;39744;53.314;5.710;2024-01-11T17:41:07;7.70;99.90
53844;DHT22;39744;53.314;5.710;2024-01-11T17:43:34;7.60;99.90
53844;DHT22;39744;53.314;5.710;2024-01-11T17:46:01;7.70;99.90
53844;DHT22;39744;53.314;5.710;2024-01-11T17:48:27;7.70;99.90
53844;DHT22;39744;53.314;5.710;2024-01-11T17:50:53;7.80;99.90
53844;DHT22;39744;53.314;5.710;2024-01-11T17:53:18;7.80;99.90
53844;DHT22;39744;53.314;5.710;2024-01-11T17:55:44;7.90;99.90
53844;DHT22;39744;53.314;5.710;2024-01-11T17:58:11;7.90;99.90
53844;DHT22;39744;53.314;5.710;2024-01-11T18:00:36;7.80;99.90
53844;DHT22;39744;53.314;5.710;2024-01-11T18:03:02;8.10;99.90
53844;DHT22;39744;53.314;5.710;2024-01-11T18:05:28;8.30;99.90
53844;DHT22;39744;53.314;5.710;2024-01-11T18:07:54;7.90;99.90